createdAt,value
2018-09-27T00:01:10.813Z,3.17
2018-09-27T00:03:38.909Z,2.80
2018-09-27T00:06:06.984Z,2.70
2018-09-27T00:08:35.083Z,2.60
2018-09-27T00:11:03.215Z,2.90
2018-09-27T00:13:31.306Z,2.97
2018-09-27T00:15:59.384Z,2.60
2018-09-27T00:18:27.537Z,2.73
2018-09-27T00:20:55.626Z,2.90
2018-09-27T00:23:23.708Z,3.07
2018-09-27T00:25:51.809Z,2.87
2018-09-27T00:28:19.886Z,2.90
2018-09-27T00:30:47.965Z,2.90
2018-09-27T00:33:16.058Z,2.83
2018-09-27T00:35:44.134Z,3.17
2018-09-27T00:38:12.232Z,3.20
2018-09-27T00:40:40.310Z,2.53
2018-09-27T00:43:08.407Z,2.57
2018-09-27T00:45:36.487Z,2.90
2018-09-27T00:48:04.572Z,2.40
2018-09-27T00:50:32.653Z,2.70
2018-09-27T00:53:00.756Z,2.40
2018-09-27T00:55:28.918Z,2.80
2018-09-27T00:57:57.008Z,2.67
2018-09-27T01:00:25.081Z,2.70
2018-09-27T01:02:53.178Z,2.40
2018-09-27T01:05:21.259Z,3.00
2018-09-27T01:07:49.480Z,2.50
2018-09-27T01:10:17.561Z,2.80
2018-09-27T01:12:45.651Z,2.60
2018-09-27T01:15:13.724Z,2.67
2018-09-27T01:17:41.852Z,2.80
2018-09-27T01:20:09.957Z,2.77
2018-09-27T01:22:38.191Z,2.67
2018-09-27T01:25:06.321Z,2.60
2018-09-27T01:27:34.425Z,3.20
2018-09-27T01:30:02.752Z,2.70
2018-09-27T01:32:30.796Z,3.87
2018-09-27T01:34:58.892Z,2.70
2018-09-27T01:37:26.968Z,3.27
2018-09-27T01:39:55.156Z,2.63
2018-09-27T01:42:23.271Z,2.67
2018-09-27T01:44:51.320Z,2.93
2018-09-27T01:47:19.400Z,2.80
2018-09-27T01:49:47.492Z,3.00
2018-09-27T01:52:15.597Z,2.70
2018-09-27T01:54:43.684Z,2.90
2018-09-27T01:57:11.778Z,3.27
2018-09-27T01:59:39.865Z,3.03
2018-09-27T02:02:08.005Z,3.03
2018-09-27T02:04:36.131Z,2.73
2018-09-27T02:07:04.216Z,3.40
2018-09-27T02:09:32.310Z,3.77
2018-09-27T02:12:00.547Z,4.37
2018-09-27T02:14:28.634Z,4.47
2018-09-27T02:16:56.720Z,5.13
2018-09-27T02:19:24.816Z,5.80
2018-09-27T02:21:52.938Z,5.37
2018-09-27T02:24:21.039Z,5.53
2018-09-27T02:26:49.138Z,5.63
2018-09-27T02:29:17.270Z,5.50
2018-09-27T02:31:45.357Z,5.40
2018-09-27T02:34:13.496Z,5.70
2018-09-27T02:36:41.541Z,4.90
2018-09-27T02:39:10.703Z,5.70
2018-09-27T02:41:39.370Z,4.73
2018-09-27T02:44:07.664Z,4.50
2018-09-27T02:46:35.759Z,4.60
2018-09-27T02:49:03.864Z,4.70
2018-09-27T02:51:32.033Z,4.57
2018-09-27T02:54:00.118Z,4.70
2018-09-27T02:56:28.270Z,4.87
2018-09-27T02:58:56.362Z,5.03
2018-09-27T03:01:24.459Z,5.27
2018-09-27T03:03:52.587Z,6.00
2018-09-27T03:06:20.707Z,6.53
2018-09-27T03:08:48.795Z,7.00
2018-09-27T03:11:16.902Z,8.80
2018-09-27T03:13:45.017Z,8.97
2018-09-27T03:16:13.085Z,8.00
2018-09-27T03:18:41.270Z,7.67
2018-09-27T03:21:09.384Z,7.83
2018-09-27T03:23:37.473Z,9.60
2018-09-27T03:26:05.891Z,9.43
2018-09-27T03:28:33.976Z,8.27
2018-09-27T03:31:02.103Z,6.27
2018-09-27T03:36:03.777Z,6.43
2018-09-27T03:38:31.864Z,6.53
2018-09-27T03:40:59.946Z,5.90
2018-09-27T03:43:28.035Z,6.30
2018-09-27T03:45:56.120Z,5.40
2018-09-27T03:48:24.212Z,5.73
2018-09-27T03:50:52.298Z,5.63
2018-09-27T03:53:20.502Z,6.00
2018-09-27T03:55:48.588Z,6.27
2018-09-27T03:58:16.679Z,5.90
2018-09-27T04:00:44.768Z,5.67
2018-09-27T04:03:12.948Z,6.47
2018-09-27T04:05:40.970Z,6.57
2018-09-27T04:08:09.069Z,5.97
2018-09-27T04:10:37.148Z,6.07
2018-09-27T04:13:05.244Z,6.27
2018-09-27T04:15:33.340Z,6.37
2018-09-27T04:18:01.435Z,7.20
2018-09-27T04:20:29.568Z,6.77
2018-09-27T04:22:57.659Z,7.30
2018-09-27T04:25:25.746Z,7.10
2018-09-27T04:27:53.935Z,7.57
2018-09-27T04:30:22.014Z,8.80
2018-09-27T04:32:50.095Z,8.70
2018-09-27T04:35:18.224Z,8.57
2018-09-27T04:37:46.310Z,8.47
2018-09-27T04:40:14.486Z,8.97
2018-09-27T04:42:42.591Z,9.00
2018-09-27T04:45:10.747Z,8.27
2018-09-27T04:47:38.829Z,11.17
2018-09-27T04:50:06.997Z,8.80
2018-09-27T04:52:35.151Z,7.90
2018-09-27T04:55:03.375Z,7.93
2018-09-27T04:57:31.485Z,6.17
2018-09-27T04:59:59.626Z,5.60
2018-09-27T05:02:27.758Z,5.57
2018-09-27T05:04:55.895Z,6.10
2018-09-27T05:07:24.009Z,8.27
2018-09-27T05:09:52.136Z,7.73
2018-09-27T05:12:20.253Z,8.70
2018-09-27T05:14:48.386Z,7.90
2018-09-27T05:17:16.513Z,8.00
2018-09-27T05:19:44.735Z,7.40
2018-09-27T05:22:12.870Z,7.13
2018-09-27T05:24:40.983Z,8.00
2018-09-27T05:27:09.231Z,5.17
2018-09-27T05:29:37.317Z,7.57
2018-09-27T05:32:05.847Z,8.90
2018-09-27T05:34:33.961Z,8.07
2018-09-27T05:37:02.090Z,8.57
2018-09-27T05:39:30.213Z,8.37
2018-09-27T05:41:58.318Z,8.93
2018-09-27T05:44:26.432Z,7.57
2018-09-27T05:46:54.681Z,7.57
2018-09-27T05:49:22.826Z,7.90
2018-09-27T05:51:50.921Z,7.20
2018-09-27T05:54:19.030Z,8.37
2018-09-27T05:56:47.196Z,8.23
2018-09-27T05:59:15.305Z,7.23
2018-09-27T06:01:43.462Z,8.40
2018-09-27T06:04:11.675Z,8.50
2018-09-27T06:06:39.818Z,10.17
2018-09-27T06:09:10.701Z,9.80
2018-09-27T06:11:38.866Z,10.43
2018-09-27T06:14:07.560Z,8.90
2018-09-27T06:16:36.545Z,8.33
2018-09-27T06:19:04.677Z,9.77
2018-09-27T06:21:32.825Z,10.07
2018-09-27T06:24:00.942Z,8.33
2018-09-27T06:26:29.453Z,9.97
2018-09-27T06:28:57.591Z,9.40
2018-09-27T06:31:25.841Z,7.87
2018-09-27T06:33:54.045Z,7.83
2018-09-27T06:36:22.218Z,8.13
2018-09-27T06:38:50.356Z,8.47
2018-09-27T06:41:18.564Z,9.07
2018-09-27T06:43:46.640Z,9.60
2018-09-27T06:46:14.763Z,8.30
2018-09-27T06:48:42.947Z,8.20
2018-09-27T06:51:11.019Z,7.80
2018-09-27T06:53:39.146Z,9.30
2018-09-27T06:56:07.485Z,8.47
2018-09-27T06:58:35.575Z,9.17
2018-09-27T07:01:03.809Z,9.30
2018-09-27T07:03:31.878Z,9.57
2018-09-27T07:06:00.159Z,8.93
2018-09-27T07:08:28.376Z,9.23
2018-09-27T07:10:56.414Z,9.57
2018-09-27T07:13:24.531Z,10.03
2018-09-27T07:15:52.702Z,10.03
2018-09-27T07:18:20.792Z,11.00
2018-09-27T07:20:48.926Z,10.97
2018-09-27T07:23:17.030Z,12.07
2018-09-27T07:25:45.154Z,9.53
2018-09-27T07:28:13.382Z,10.60
2018-09-27T07:30:41.502Z,12.40
2018-09-27T07:33:09.624Z,13.40
2018-09-27T07:35:37.747Z,12.87
2018-09-27T07:38:05.963Z,14.30
2018-09-27T07:40:34.092Z,14.13
2018-09-27T07:43:02.376Z,14.37
2018-09-27T07:45:30.564Z,12.10
2018-09-27T07:47:58.661Z,13.23
2018-09-27T07:50:27.011Z,11.57
2018-09-27T07:52:55.094Z,13.00
2018-09-27T07:55:23.229Z,13.50
2018-09-27T07:57:51.379Z,12.77
2018-09-27T08:00:19.496Z,9.50
2018-09-27T08:02:47.717Z,9.77
2018-09-27T08:05:15.793Z,8.17
2018-09-27T08:07:43.921Z,9.40
2018-09-27T08:10:12.174Z,9.33
2018-09-27T08:12:40.274Z,9.13
2018-09-27T08:15:08.423Z,8.47
2018-09-27T08:17:36.598Z,7.17
2018-09-27T08:20:04.708Z,8.13
2018-09-27T08:22:32.891Z,6.77
2018-09-27T08:25:00.987Z,6.97
2018-09-27T08:27:29.169Z,5.93
2018-09-27T08:29:57.338Z,6.60
2018-09-27T08:32:25.502Z,6.57
2018-09-27T08:34:53.613Z,7.10
2018-09-27T08:37:21.701Z,6.63
2018-09-27T08:39:49.830Z,6.30
2018-09-27T08:42:17.955Z,6.23
2018-09-27T08:44:46.179Z,4.97
2018-09-27T08:47:14.199Z,4.50
2018-09-27T08:49:42.330Z,5.00
2018-09-27T08:52:10.461Z,4.47
2018-09-27T08:54:38.739Z,3.90
2018-09-27T08:57:07.085Z,4.90
2018-09-27T08:59:35.195Z,6.50
2018-09-27T09:02:03.352Z,5.03
2018-09-27T09:04:31.505Z,5.40
2018-09-27T09:06:59.656Z,7.83
2018-09-27T09:09:27.853Z,5.57
2018-09-27T09:11:55.921Z,5.93
2018-09-27T09:14:24.037Z,4.20
2018-09-27T09:16:52.344Z,3.97
2018-09-27T09:19:20.469Z,4.33
2018-09-27T09:21:48.623Z,3.73
2018-09-27T09:24:16.880Z,3.90
2018-09-27T09:26:45.009Z,5.83
2018-09-27T09:29:13.151Z,4.17
2018-09-27T09:31:41.290Z,3.87
2018-09-27T09:34:09.479Z,3.40
2018-09-27T09:36:37.586Z,3.20
2018-09-27T09:39:07.319Z,3.70
2018-09-27T09:41:35.465Z,3.23
2018-09-27T09:44:03.630Z,3.60
2018-09-27T09:46:31.755Z,3.43
2018-09-27T09:48:59.842Z,3.53
2018-09-27T09:51:27.955Z,5.70
2018-09-27T09:53:56.084Z,3.80
2018-09-27T09:56:24.200Z,4.93
2018-09-27T09:58:52.319Z,4.80
2018-09-27T10:01:20.527Z,3.40
2018-09-27T10:03:48.681Z,3.70
2018-09-27T10:06:16.882Z,4.73
2018-09-27T10:08:45.061Z,3.10
2018-09-27T10:11:13.230Z,3.00
2018-09-27T10:13:41.345Z,2.53
2018-09-27T10:16:09.504Z,2.77
2018-09-27T10:18:37.583Z,3.70
2018-09-27T10:21:05.695Z,2.70
2018-09-27T10:23:33.881Z,2.40
2018-09-27T10:26:02.002Z,2.40
2018-09-27T10:28:30.109Z,3.20
2018-09-27T10:30:58.228Z,2.97
2018-09-27T10:33:26.378Z,2.20
2018-09-27T10:35:54.458Z,2.53
2018-09-27T10:38:22.564Z,2.53
2018-09-27T10:40:50.650Z,2.00
2018-09-27T10:43:18.765Z,2.30
2018-09-27T10:45:46.851Z,1.90
2018-09-27T10:48:14.931Z,2.20
2018-09-27T10:50:43.073Z,2.23
2018-09-27T10:53:11.152Z,2.17
2018-09-27T10:55:39.230Z,2.03
2018-09-27T10:58:08.001Z,1.50
2018-09-27T11:00:36.077Z,1.87
2018-09-27T11:03:04.162Z,1.60
2018-09-27T11:05:32.301Z,2.00
2018-09-27T11:08:00.338Z,1.67
2018-09-27T11:10:28.418Z,2.43
2018-09-27T11:12:56.527Z,2.20
2018-09-27T11:15:24.619Z,2.13
2018-09-27T11:17:52.718Z,1.90
2018-09-27T11:20:20.816Z,1.77
2018-09-27T11:22:48.902Z,1.67
2018-09-27T11:25:16.985Z,1.73
2018-09-27T11:27:45.228Z,1.90
2018-09-27T11:30:18.816Z,2.10
2018-09-27T11:32:47.884Z,1.90
2018-09-27T11:35:15.971Z,1.80
2018-09-27T11:37:44.061Z,1.70
2018-09-27T11:40:12.135Z,1.53
2018-09-27T11:42:40.545Z,1.93
2018-09-27T11:45:09.088Z,2.50
2018-09-27T11:47:37.187Z,2.37
2018-09-27T11:50:05.638Z,1.80
2018-09-27T11:52:33.630Z,1.80
2018-09-27T11:55:01.817Z,1.90
2018-09-27T11:57:29.881Z,1.87
2018-09-27T11:59:57.979Z,1.83
2018-09-27T12:02:26.108Z,1.83
2018-09-27T12:04:54.399Z,1.60
2018-09-27T12:07:22.545Z,1.70
2018-09-27T12:09:50.638Z,2.20
2018-09-27T12:12:20.559Z,1.80
2018-09-27T12:14:48.637Z,2.00
2018-09-27T12:17:16.875Z,2.37
2018-09-27T12:19:45.005Z,1.60
2018-09-27T12:22:13.061Z,2.10
2018-09-27T12:24:41.177Z,2.10
2018-09-27T12:27:09.274Z,2.10
2018-09-27T12:29:37.361Z,1.73
2018-09-27T12:32:05.451Z,1.60
2018-09-27T12:34:33.545Z,1.90
2018-09-27T12:37:01.643Z,2.10
2018-09-27T12:39:29.752Z,2.30
2018-09-27T12:41:57.957Z,1.90
2018-09-27T12:44:25.894Z,1.70
2018-09-27T12:46:54.024Z,2.23
2018-09-27T12:49:22.067Z,1.90
2018-09-27T12:51:50.305Z,2.47
2018-09-27T12:54:18.279Z,2.03
2018-09-27T12:56:46.371Z,2.70
2018-09-27T12:59:14.450Z,2.37
2018-09-27T13:01:42.608Z,2.37
2018-09-27T13:04:10.681Z,2.30
2018-09-27T13:06:38.713Z,2.37
2018-09-27T13:09:07.958Z,2.60
2018-09-27T13:11:40.641Z,2.10
2018-09-27T13:14:04.097Z,2.70
2018-09-27T13:16:32.169Z,2.60
2018-09-27T13:19:00.378Z,2.30
2018-09-27T13:21:28.418Z,2.97
2018-09-27T13:23:56.545Z,2.13
2018-09-27T13:26:24.650Z,2.57
2018-09-27T13:28:52.942Z,2.70
2018-09-27T13:31:21.029Z,2.50
2018-09-27T13:33:49.346Z,2.50
2018-09-27T13:36:17.391Z,2.60
2018-09-27T13:38:45.594Z,2.17
2018-09-27T13:41:13.668Z,2.30
2018-09-27T13:43:41.763Z,2.53
2018-09-27T13:46:09.966Z,2.47
2018-09-27T13:48:38.251Z,2.50
2018-09-27T13:51:06.424Z,2.80
2018-09-27T13:53:34.454Z,2.20
2018-09-27T13:56:02.562Z,2.60
2018-09-27T13:58:30.731Z,3.03
2018-09-27T14:00:58.802Z,2.33
2018-09-27T14:03:26.857Z,1.90
2018-09-27T14:05:55.360Z,2.03
2018-09-27T14:08:23.450Z,1.97
2018-09-27T14:10:51.530Z,2.10
2018-09-27T14:13:19.725Z,1.90
2018-09-27T14:15:47.802Z,1.90
2018-09-27T14:18:16.028Z,1.57
2018-09-27T14:20:44.138Z,2.00
2018-09-27T14:23:12.285Z,1.60
2018-09-27T14:25:40.425Z,1.90
2018-09-27T14:28:08.490Z,1.87
2018-09-27T14:30:36.571Z,1.80
2018-09-27T14:33:04.659Z,1.70
2018-09-27T14:35:32.760Z,1.77
2018-09-27T14:38:00.884Z,1.70
2018-09-27T14:40:28.964Z,1.70
2018-09-27T14:42:57.132Z,1.60
2018-09-27T14:45:25.317Z,1.97
2018-09-27T14:47:53.521Z,1.57
2018-09-27T14:50:21.611Z,1.50
2018-09-27T14:52:49.610Z,1.47
2018-09-27T14:55:17.701Z,1.60
2018-09-27T14:57:45.859Z,1.80
2018-09-27T15:00:13.963Z,1.47
2018-09-27T15:02:42.117Z,1.60
2018-09-27T15:05:10.294Z,1.50
2018-09-27T15:07:38.380Z,1.60
2018-09-27T15:10:06.687Z,1.43
2018-09-27T15:12:34.822Z,1.60
2018-09-27T15:15:02.909Z,1.63
2018-09-27T15:17:31.048Z,1.40
2018-09-27T15:19:59.156Z,2.60
2018-09-27T15:22:27.466Z,2.30
2018-09-27T15:24:55.518Z,2.10
2018-09-27T15:27:23.650Z,2.10
2018-09-27T15:29:51.846Z,1.40
2018-09-27T15:32:19.998Z,1.90
2018-09-27T15:34:48.185Z,1.93
2018-09-27T15:37:16.262Z,1.40
2018-09-27T15:39:44.360Z,2.40
2018-09-27T15:42:12.499Z,3.10
2018-09-27T15:44:40.673Z,2.53
2018-09-27T15:47:08.804Z,2.80
2018-09-27T15:49:37.111Z,2.27
2018-09-27T15:52:05.311Z,2.80
2018-09-27T15:54:33.390Z,2.10
2018-09-27T15:57:01.479Z,1.60
2018-09-27T15:59:29.566Z,1.27
2018-09-27T16:01:57.721Z,1.50
2018-09-27T16:04:25.980Z,1.47
2018-09-27T16:06:54.153Z,1.40
2018-09-27T16:09:22.318Z,1.20
2018-09-27T16:11:50.435Z,1.40
2018-09-27T16:14:18.486Z,2.70
2018-09-27T16:16:46.578Z,3.60
2018-09-27T16:19:14.671Z,1.60
2018-09-27T16:21:42.802Z,1.50
2018-09-27T16:24:10.886Z,1.50
2018-09-27T16:26:38.973Z,1.60
2018-09-27T16:29:07.239Z,1.70
2018-09-27T16:31:35.389Z,1.83
2018-09-27T16:34:03.553Z,1.90
2018-09-27T16:36:31.646Z,1.53
2018-09-27T16:38:59.810Z,1.90
2018-09-27T16:41:28.055Z,2.10
2018-09-27T16:43:56.165Z,1.57
2018-09-27T16:46:24.338Z,1.37
2018-09-27T16:48:52.517Z,1.67
2018-09-27T16:51:20.669Z,1.80
2018-09-27T16:53:48.766Z,1.80
2018-09-27T16:56:16.842Z,1.90
2018-09-27T16:58:45.013Z,1.57
2018-09-27T17:01:13.430Z,1.67
2018-09-27T17:03:41.557Z,3.30
2018-09-27T17:06:09.657Z,2.57
2018-09-27T17:08:37.919Z,2.73
2018-09-27T17:11:06.225Z,2.20
2018-09-27T17:13:34.493Z,2.30
2018-09-27T17:16:03.371Z,3.00
2018-09-27T17:18:31.501Z,2.27
2018-09-27T17:20:59.593Z,2.17
2018-09-27T17:23:27.765Z,3.30
2018-09-27T17:25:55.831Z,2.53
2018-09-27T17:28:24.027Z,2.03
2018-09-27T17:30:52.105Z,3.27
2018-09-27T17:33:20.289Z,2.70
2018-09-27T17:35:48.403Z,3.07
2018-09-27T17:38:16.498Z,2.80
2018-09-27T17:40:44.622Z,2.20
2018-09-27T17:43:12.793Z,2.13
2018-09-27T17:45:41.005Z,2.20
2018-09-27T17:48:09.077Z,2.40
2018-09-27T17:50:37.203Z,1.90
2018-09-27T17:53:05.362Z,2.63
2018-09-27T17:55:33.472Z,2.30
2018-09-27T17:58:01.509Z,2.37
2018-09-27T18:00:29.605Z,2.40
2018-09-27T18:02:57.751Z,2.40
2018-09-27T18:05:26.008Z,2.53
2018-09-27T18:07:54.766Z,2.50
2018-09-27T18:10:22.913Z,2.30
2018-09-27T18:12:51.077Z,2.67
2018-09-27T18:15:19.227Z,2.60
2018-09-27T18:17:47.427Z,2.87
2018-09-27T18:20:15.838Z,2.70
2018-09-27T18:22:44.011Z,2.37
2018-09-27T18:25:12.150Z,2.60
2018-09-27T18:27:40.247Z,2.80
2018-09-27T18:30:08.338Z,3.00
2018-09-27T18:32:36.422Z,3.13
2018-09-27T18:35:04.645Z,3.20
2018-09-27T18:37:32.901Z,3.07
2018-09-27T18:40:01.009Z,3.33
2018-09-27T18:42:29.244Z,3.57
2018-09-27T18:44:57.327Z,4.13
2018-09-27T18:47:25.643Z,4.00
2018-09-27T18:49:53.800Z,3.50
2018-09-27T18:52:21.972Z,4.27
2018-09-27T18:54:50.045Z,4.10
2018-09-27T18:57:18.138Z,6.70
2018-09-27T18:59:46.271Z,7.03
2018-09-27T19:02:14.366Z,5.50
2018-09-27T19:04:42.462Z,4.70
2018-09-27T19:07:10.613Z,4.23
2018-09-27T19:09:38.779Z,4.53
2018-09-27T19:12:07.253Z,4.13
2018-09-27T19:14:35.437Z,4.03
2018-09-27T19:17:03.733Z,3.50
2018-09-27T19:19:31.921Z,3.47
2018-09-27T19:22:00.062Z,3.87
2018-09-27T19:24:28.163Z,3.30
2018-09-27T19:26:56.322Z,3.90
2018-09-27T19:29:24.478Z,3.30
2018-09-27T19:31:52.688Z,3.50
2018-09-27T19:34:20.774Z,3.43
2018-09-27T19:36:48.865Z,3.53
2018-09-27T19:39:17.023Z,3.50
2018-09-27T19:41:45.049Z,3.30
2018-09-27T19:44:13.151Z,3.30
2018-09-27T19:46:41.326Z,3.67
2018-09-27T19:49:09.662Z,2.80
2018-09-27T19:51:37.891Z,3.10
2018-09-27T19:54:06.027Z,3.90
2018-09-27T19:56:34.155Z,3.00
2018-09-27T19:59:02.270Z,3.40
2018-09-27T20:01:30.362Z,3.10
2018-09-27T20:03:58.527Z,3.17
2018-09-27T20:06:26.685Z,3.77
2018-09-27T20:08:54.721Z,3.80
2018-09-27T20:11:22.846Z,3.47
2018-09-27T20:13:51.026Z,3.70
2018-09-27T20:16:19.340Z,3.53
2018-09-27T20:18:47.271Z,3.07
2018-09-27T20:21:16.353Z,3.43
2018-09-27T20:23:44.456Z,3.50
2018-09-27T20:26:12.533Z,3.43
2018-09-27T20:28:40.634Z,3.37
2018-09-27T20:31:08.748Z,3.53
2018-09-27T20:33:36.837Z,3.07
2018-09-27T20:36:04.915Z,3.23
2018-09-27T20:38:33.105Z,3.57
2018-09-27T20:41:01.235Z,3.23
2018-09-27T20:43:29.320Z,3.33
2018-09-27T20:45:57.401Z,3.40
2018-09-27T20:48:25.596Z,3.20
2018-09-27T20:50:53.749Z,3.37
2018-09-27T20:53:21.926Z,3.50
2018-09-27T20:55:49.998Z,2.93
2018-09-27T20:58:18.088Z,2.90
2018-09-27T21:00:46.230Z,3.17
2018-09-27T21:03:14.384Z,3.10
2018-09-27T21:05:42.425Z,3.07
2018-09-27T21:08:10.513Z,3.33
2018-09-27T21:10:38.607Z,3.33
2018-09-27T21:13:06.802Z,3.60
2018-09-27T21:15:34.986Z,3.10
2018-09-27T21:18:03.061Z,3.33
2018-09-27T21:20:31.144Z,3.23
2018-09-27T21:22:59.292Z,3.53
2018-09-27T21:25:27.410Z,2.90
2018-09-27T21:27:55.487Z,3.10
2018-09-27T21:30:23.576Z,3.20
2018-09-27T21:32:51.671Z,3.20
2018-09-27T21:35:19.764Z,3.07
2018-09-27T21:37:47.850Z,3.00
2018-09-27T21:40:15.949Z,3.53
2018-09-27T21:42:44.037Z,3.10
2018-09-27T21:45:12.121Z,2.77
2018-09-27T21:47:40.205Z,3.20
2018-09-27T21:50:08.436Z,3.57
2018-09-27T21:52:36.401Z,3.53
2018-09-27T21:55:04.487Z,3.07
2018-09-27T21:57:32.575Z,3.03
2018-09-27T22:00:00.671Z,3.20
2018-09-27T22:02:28.761Z,3.50
2018-09-27T22:04:56.945Z,3.33
2018-09-27T22:07:26.378Z,3.50
2018-09-27T22:09:55.692Z,3.10
2018-09-27T22:12:23.790Z,3.03
2018-09-27T22:14:52.009Z,2.80
2018-09-27T22:17:20.093Z,3.10
2018-09-27T22:19:48.173Z,3.20
2018-09-27T22:22:16.651Z,2.83
2018-09-27T22:24:44.834Z,3.00
2018-09-27T22:27:12.916Z,3.37
2018-09-27T22:29:41.052Z,3.57
2018-09-27T22:32:09.128Z,3.23
2018-09-27T22:34:37.218Z,3.00
2018-09-27T22:37:05.407Z,3.27
2018-09-27T22:39:33.548Z,2.87
2018-09-27T22:42:01.665Z,2.93
2018-09-27T22:44:29.776Z,3.03
2018-09-27T22:46:57.864Z,2.93
2018-09-27T22:49:25.941Z,2.80
2018-09-27T22:51:54.025Z,3.00
2018-09-27T22:54:22.108Z,3.10
2018-09-27T22:56:50.200Z,3.13
2018-09-27T22:59:18.269Z,2.90
2018-09-27T23:01:46.426Z,3.20
2018-09-27T23:04:14.562Z,3.20
2018-09-27T23:06:42.686Z,3.30
2018-09-27T23:09:10.779Z,2.90
2018-09-27T23:11:38.869Z,3.00
2018-09-27T23:14:06.949Z,3.20
2018-09-27T23:16:35.063Z,3.10
2018-09-27T23:19:03.353Z,3.30
2018-09-27T23:21:31.442Z,3.10
2018-09-27T23:23:59.699Z,3.00
2018-09-27T23:26:28.189Z,3.23
2018-09-27T23:28:56.278Z,3.00
2018-09-27T23:31:24.381Z,2.90
2018-09-27T23:33:52.461Z,3.40
2018-09-27T23:36:20.649Z,2.97
2018-09-27T23:38:48.738Z,3.27
2018-09-27T23:41:16.828Z,3.00
2018-09-27T23:43:44.905Z,3.03
2018-09-27T23:46:12.997Z,2.97
2018-09-27T23:48:41.102Z,2.80
2018-09-27T23:51:09.188Z,3.73
2018-09-27T23:53:37.304Z,4.50
2018-09-27T23:56:05.392Z,4.40
2018-09-27T23:58:33.513Z,4.20
